Annapolis, MD (21403)

7:30 AM EDT on September 05, 2015 (GMT -0400)
Eastport | | Change Station
CLOSE
Current Station
Personal Weather Station
Location: Annapolis, MD
Elevation: 33 ft
Nearby Weather Stations

Elev 33 ft 38.96 °N, 76.49 °W | Updated 25 seconds ago

Overcast
Overcast
73.6 °F
Feels Like 73 °F
N
0.2
Wind Variable Wind from SE
Gusts 2.5 mph

Today
High -- | Low -- °F
--% Chance of Precip.
Yesterday
High -- | Low -- °F
Precip. -- in
6:38 AM 7:30 PM
Waning Gibbous, 49% visible
Pressure 30.21 in
Visibility 8.0 miles
Clouds Few 1700 ft
Overcast 3600 ft
Heat Index 73 °F
Dew Point 68 °F
Humidity 84%
Rainfall 0.00 in
Snow Depth Not available.
UV 0.0 out of 12
Pollen 9.60 out of 12
Air Quality Not available.
Flu Activity Not available.
METAR KNAK 051054Z AUTO 06006KT 8SM FEW017 OVC036 23/21 A3021 RMK AO2 SLP230 T02330206
Pressure 30.21 in
Visibility 8.0 miles
Clouds Few 1700 ft
Overcast 3600 ft
Heat Index 73 °F
Dew Point 68 °F
Humidity 84%
Rainfall 0.00 in
Snow Depth Not available.
UV 0.0 out of 12
Pollen 9.60 out of 12
Air Quality Not available.
Flu Activity Not available.
METAR KNAK 051054Z AUTO 06006KT 8SM FEW017 OVC036 23/21 A3021 RMK AO2 SLP230 T02330206

10-Day Weather Forecast

×

Almanac

Astronomy

Sep. 05, 2015 Rise Set
Actual Time
Civil Twilight
Nautical Twilight
Astronomical Twilight
Moon
Length of Visible Light
Length of Day
Tomorrow will be .
, % of the Moon is Illuminated

Today's Extremes

State Highs State Lows

Community

WunderPhotos

Upload Photos

1,852,449 photos uploaded!

WunderBlogs® & News

Nearby

Air Quality

  Air Quality AQ Index Pollutant
Not available.

Snow Depth

Station Depth Elevation

Earthquake Activity

City Distance Mag. Time & Date
Minimum magnitude displayed is 2.5.

Coastal Water Temperatures

Place Temperature

Stations

Nearby Weather Stations

Station Location Temp. Windchill Dew Point Humidity Wind Precip. Elev Updated Type